createdAt,value
2022-11-30T00:01:24.878Z,101804.00
2022-11-30T00:03:56.711Z,101816.00
2022-11-30T00:06:24.957Z,101813.00
2022-11-30T00:08:57.277Z,101816.00
2022-11-30T00:11:26.859Z,101821.00
2022-11-30T00:13:53.840Z,101815.00
2022-11-30T00:16:21.098Z,101823.00
2022-11-30T00:18:48.140Z,101820.00
2022-11-30T00:21:16.146Z,101823.00
2022-11-30T00:23:46.158Z,101813.00
2022-11-30T00:26:17.302Z,101824.00
2022-11-30T00:28:48.156Z,101820.00
2022-11-30T00:31:18.469Z,101824.00
2022-11-30T00:33:45.593Z,101824.00
2022-11-30T00:36:15.868Z,101827.00
2022-11-30T00:38:43.356Z,101822.00
2022-11-30T00:41:11.046Z,101821.00
2022-11-30T00:43:37.936Z,101814.00
2022-11-30T00:46:05.466Z,101819.00
2022-11-30T00:48:32.251Z,101804.00
2022-11-30T00:50:59.063Z,101812.00
2022-11-30T00:53:25.888Z,101810.00
2022-11-30T00:55:52.663Z,101813.00
2022-11-30T00:58:20.017Z,101818.00
2022-11-30T01:00:47.147Z,101816.00
2022-11-30T01:03:14.955Z,101824.00
2022-11-30T01:05:43.285Z,101834.00
2022-11-30T01:08:11.966Z,101827.00
2022-11-30T01:10:41.579Z,101831.00
2022-11-30T01:13:09.152Z,101832.00
2022-11-30T01:15:39.032Z,101825.00
2022-11-30T01:18:06.312Z,101833.00
2022-11-30T01:20:33.406Z,101831.00
2022-11-30T01:23:00.250Z,101838.00
2022-11-30T01:25:26.993Z,101835.00
2022-11-30T01:27:53.726Z,101837.00
2022-11-30T01:30:20.532Z,101841.00
2022-11-30T01:32:47.319Z,101834.00
2022-11-30T01:35:14.201Z,101839.00
2022-11-30T01:37:40.969Z,101830.00
2022-11-30T01:40:08.797Z,101834.00
2022-11-30T01:42:37.874Z,101845.00
2022-11-30T01:45:07.350Z,101840.00
2022-11-30T01:47:39.764Z,101838.00
2022-11-30T01:50:27.744Z,101841.00
2022-11-30T01:52:57.691Z,101837.00
2022-11-30T01:55:37.389Z,101833.00
2022-11-30T01:58:10.249Z,101841.00
2022-11-30T02:00:37.143Z,101825.00
2022-11-30T02:03:34.405Z,101843.00
2022-11-30T02:06:01.482Z,101843.00
2022-11-30T02:08:30.931Z,101845.00
2022-11-30T02:11:05.537Z,101842.00
2022-11-30T02:14:04.337Z,101852.00
2022-11-30T02:17:09.493Z,101848.00
2022-11-30T02:20:13.078Z,101847.00
2022-11-30T02:23:27.930Z,101841.00
2022-11-30T02:26:22.516Z,101839.00
2022-11-30T02:29:20.492Z,101838.00
2022-11-30T02:32:18.483Z,101836.00
2022-11-30T02:34:49.098Z,101837.00
2022-11-30T02:37:18.034Z,101840.00
2022-11-30T02:39:44.880Z,101841.00
2022-11-30T02:42:13.971Z,101845.00
2022-11-30T02:44:49.183Z,101847.00
2022-11-30T02:47:40.834Z,101850.00
2022-11-30T02:50:40.690Z,101841.00
2022-11-30T02:53:10.175Z,101852.00
2022-11-30T02:55:37.193Z,101846.00
2022-11-30T02:58:03.936Z,101843.00
2022-11-30T03:00:30.813Z,101846.00
2022-11-30T03:02:57.831Z,101839.00
2022-11-30T03:05:24.904Z,101851.00
2022-11-30T03:07:51.674Z,101851.00
2022-11-30T03:10:18.501Z,101847.00
2022-11-30T03:12:45.251Z,101843.00
2022-11-30T03:15:11.994Z,101849.00
2022-11-30T03:17:38.710Z,101854.00
2022-11-30T03:20:06.512Z,101855.00
2022-11-30T03:22:33.321Z,101860.00
2022-11-30T03:25:00.232Z,101855.00
2022-11-30T03:27:27.190Z,101851.00
2022-11-30T03:29:54.110Z,101860.00
2022-11-30T03:32:20.883Z,101858.00
2022-11-30T03:34:47.854Z,101862.00
2022-11-30T03:37:14.753Z,101870.00
2022-11-30T03:39:41.453Z,101861.00
2022-11-30T03:42:08.215Z,101874.00
2022-11-30T03:44:34.991Z,101870.00
2022-11-30T03:47:01.941Z,101876.00
2022-11-30T03:49:28.711Z,101869.00
2022-11-30T03:51:56.014Z,101874.00
2022-11-30T03:54:22.764Z,101876.00
2022-11-30T03:56:49.567Z,101871.00
2022-11-30T03:59:16.462Z,101881.00
2022-11-30T04:01:43.365Z,101879.00
2022-11-30T04:04:12.239Z,101883.00
2022-11-30T04:06:40.563Z,101886.00
2022-11-30T04:09:07.449Z,101874.00
2022-11-30T04:11:35.852Z,101881.00
2022-11-30T04:14:02.600Z,101890.00
2022-11-30T04:16:29.607Z,101886.00
2022-11-30T04:18:56.444Z,101888.00
2022-11-30T04:21:23.196Z,101887.00
2022-11-30T04:23:50.116Z,101895.00
2022-11-30T04:26:17.678Z,101889.00
2022-11-30T04:28:44.791Z,101881.00
2022-11-30T04:31:12.425Z,101884.00
2022-11-30T04:33:39.607Z,101890.00
2022-11-30T04:36:08.246Z,101899.00
2022-11-30T04:38:37.065Z,101902.00
2022-11-30T04:41:08.854Z,101901.00
2022-11-30T04:43:35.937Z,101906.00
2022-11-30T04:46:03.518Z,101910.00
2022-11-30T04:48:30.393Z,101904.00
2022-11-30T04:51:08.819Z,101916.00
2022-11-30T04:53:38.116Z,101906.00
2022-11-30T04:56:10.625Z,101912.00
2022-11-30T04:58:38.957Z,101909.00
2022-11-30T05:01:06.156Z,101907.00
2022-11-30T05:03:32.897Z,101903.00
2022-11-30T05:05:59.627Z,101901.00
2022-11-30T05:08:26.388Z,101901.00
2022-11-30T05:10:54.782Z,101909.00
2022-11-30T05:13:24.626Z,101913.00
2022-11-30T05:15:53.605Z,101908.00
2022-11-30T05:18:20.446Z,101917.00
2022-11-30T05:20:51.686Z,101913.00
2022-11-30T05:23:19.655Z,101929.00
2022-11-30T05:25:47.132Z,101925.00
2022-11-30T05:28:14.336Z,101932.00
2022-11-30T05:30:43.493Z,101936.00
2022-11-30T05:33:10.371Z,101926.00
2022-11-30T05:35:37.879Z,101931.00
2022-11-30T05:38:05.038Z,101929.00
2022-11-30T05:40:33.512Z,101938.00
2022-11-30T05:43:01.905Z,101939.00
2022-11-30T05:45:29.267Z,101936.00
2022-11-30T05:47:56.005Z,101937.00
2022-11-30T05:50:22.842Z,101939.00
2022-11-30T05:52:49.590Z,101939.00
2022-11-30T05:55:16.374Z,101933.00
2022-11-30T05:57:43.142Z,101944.00
2022-11-30T06:00:10.587Z,101944.00
2022-11-30T06:02:37.505Z,101950.00
2022-11-30T06:05:04.713Z,101949.00
2022-11-30T06:07:31.574Z,101967.00
2022-11-30T06:09:58.343Z,101959.00
2022-11-30T06:12:26.178Z,101956.00
2022-11-30T06:14:52.977Z,101959.00
2022-11-30T06:17:20.212Z,101955.00
2022-11-30T06:19:47.022Z,101962.00
2022-11-30T06:22:13.821Z,101963.00
2022-11-30T06:24:40.579Z,101965.00
2022-11-30T06:27:07.346Z,101965.00
2022-11-30T06:29:34.092Z,101969.00
2022-11-30T06:32:00.882Z,101965.00
2022-11-30T06:34:27.700Z,101971.00
2022-11-30T06:36:54.516Z,101969.00
2022-11-30T06:39:42.956Z,101975.00
2022-11-30T06:42:08.058Z,101968.00
2022-11-30T06:44:34.805Z,101971.00
2022-11-30T06:47:01.513Z,101974.00
2022-11-30T06:49:28.285Z,101978.00
2022-11-30T06:51:55.015Z,101985.00
2022-11-30T06:54:21.806Z,101985.00
2022-11-30T06:56:48.801Z,101980.00
2022-11-30T06:59:15.514Z,101997.00
2022-11-30T07:01:42.248Z,101989.00
2022-11-30T07:04:09.413Z,101985.00
2022-11-30T07:06:36.791Z,101986.00
2022-11-30T07:09:03.756Z,101989.00
2022-11-30T07:11:32.067Z,101990.00
2022-11-30T07:13:58.780Z,101992.00
2022-11-30T07:16:25.540Z,101995.00
2022-11-30T07:18:52.285Z,102001.00
2022-11-30T07:21:19.034Z,102000.00
2022-11-30T07:24:04.196Z,102006.00
2022-11-30T07:26:30.989Z,102015.00
2022-11-30T07:29:00.290Z,102010.00
2022-11-30T07:31:34.594Z,102014.00
2022-11-30T07:34:07.931Z,102012.00
2022-11-30T07:36:36.361Z,102021.00
2022-11-30T07:39:04.190Z,102020.00
2022-11-30T07:41:30.966Z,102022.00
2022-11-30T07:43:57.956Z,102033.00
2022-11-30T07:46:24.732Z,102023.00
2022-11-30T07:48:51.489Z,102030.00
2022-11-30T07:51:21.988Z,102018.00
2022-11-30T07:53:49.330Z,102030.00
2022-11-30T07:56:19.693Z,102037.00
2022-11-30T07:58:47.570Z,102032.00
2022-11-30T08:01:17.700Z,102030.00
2022-11-30T08:03:44.782Z,102029.00
2022-11-30T08:06:15.950Z,102025.00
2022-11-30T08:08:45.435Z,102034.00
2022-11-30T08:11:16.281Z,102036.00
2022-11-30T08:13:44.164Z,102040.00
2022-11-30T08:16:15.007Z,102029.00
2022-11-30T08:18:42.615Z,102035.00
2022-11-30T08:21:12.716Z,102041.00
2022-11-30T08:23:43.307Z,102035.00
2022-11-30T08:26:26.061Z,102043.00
2022-11-30T08:28:56.128Z,102041.00
2022-11-30T08:31:34.141Z,102049.00
2022-11-30T08:34:08.190Z,102048.00
2022-11-30T08:36:35.379Z,102055.00
2022-11-30T08:39:05.503Z,102050.00
2022-11-30T08:41:34.801Z,102066.00
2022-11-30T08:44:02.044Z,102052.00
2022-11-30T08:49:24.171Z,102061.00
2022-11-30T08:54:47.787Z,102061.00
2022-11-30T08:57:21.044Z,102071.00
2022-11-30T08:59:48.462Z,102073.00
2022-11-30T09:02:18.645Z,102073.00
2022-11-30T09:05:09.409Z,102071.00
2022-11-30T09:07:35.727Z,102075.00
2022-11-30T09:10:02.543Z,102077.00
2022-11-30T09:12:29.270Z,102069.00
2022-11-30T09:14:58.325Z,102075.00
2022-11-30T09:17:26.014Z,102078.00
2022-11-30T09:19:54.909Z,102077.00
2022-11-30T09:22:21.807Z,102075.00
2022-11-30T09:24:48.902Z,102076.00
2022-11-30T09:27:15.914Z,102072.00
2022-11-30T09:29:42.751Z,102068.00
2022-11-30T09:32:09.565Z,102070.00
2022-11-30T09:34:36.364Z,102073.00
2022-11-30T09:37:03.459Z,102074.00
2022-11-30T09:39:30.236Z,102073.00
2022-11-30T09:42:32.904Z,102067.00
2022-11-30T09:45:19.854Z,102069.00
2022-11-30T09:48:18.127Z,102069.00
2022-11-30T09:50:47.456Z,102063.00
2022-11-30T09:53:40.222Z,102061.00
2022-11-30T09:56:24.271Z,102068.00
2022-11-30T09:58:59.941Z,102058.00
2022-11-30T10:01:30.644Z,102062.00
2022-11-30T10:03:59.736Z,102054.00
2022-11-30T10:07:05.782Z,102063.00
2022-11-30T10:10:39.576Z,102061.00
2022-11-30T10:13:35.087Z,102058.00
2022-11-30T10:16:21.634Z,102064.00
2022-11-30T10:19:33.065Z,102064.00
2022-11-30T10:22:17.650Z,102068.00
2022-11-30T10:25:16.208Z,102064.00
2022-11-30T10:28:18.080Z,102066.00
2022-11-30T10:30:50.201Z,102055.00
2022-11-30T10:33:24.117Z,102059.00
2022-11-30T10:36:08.576Z,102069.00
2022-11-30T10:38:49.486Z,102060.00
2022-11-30T10:41:25.854Z,102059.00
2022-11-30T10:44:06.766Z,102067.00
2022-11-30T10:46:43.282Z,102063.00
2022-11-30T10:49:18.656Z,102063.00
2022-11-30T10:51:52.514Z,102070.00
2022-11-30T10:54:22.466Z,102058.00
2022-11-30T10:56:49.532Z,102065.00
2022-11-30T10:59:25.981Z,102067.00
2022-11-30T11:01:53.482Z,102065.00
2022-11-30T11:04:27.583Z,102057.00
2022-11-30T11:06:59.385Z,102055.00
2022-11-30T11:09:48.928Z,102060.00
2022-11-30T11:12:25.514Z,102068.00
2022-11-30T11:15:18.329Z,102064.00
2022-11-30T11:17:45.436Z,102071.00
2022-11-30T11:20:32.076Z,102071.00
2022-11-30T11:22:59.011Z,102067.00
2022-11-30T11:25:35.349Z,102083.00
2022-11-30T11:28:14.184Z,102089.00
2022-11-30T11:30:41.718Z,102077.00
2022-11-30T11:33:11.783Z,102079.00
2022-11-30T11:36:06.938Z,102080.00
2022-11-30T11:38:51.085Z,102080.00
2022-11-30T11:41:31.412Z,102077.00
2022-11-30T11:44:22.045Z,102086.00
2022-11-30T11:47:06.178Z,102088.00
2022-11-30T11:49:36.818Z,102091.00
2022-11-30T11:52:18.038Z,102089.00
2022-11-30T11:54:56.535Z,102088.00
2022-11-30T11:57:39.941Z,102086.00
2022-11-30T12:00:16.960Z,102087.00
2022-11-30T12:03:18.078Z,102087.00
2022-11-30T12:05:51.665Z,102084.00
2022-11-30T12:08:57.815Z,102083.00
2022-11-30T12:11:44.128Z,102091.00
2022-11-30T12:14:18.011Z,102085.00
2022-11-30T12:17:17.881Z,102087.00
2022-11-30T12:20:19.010Z,102085.00
2022-11-30T12:23:21.349Z,102097.00
2022-11-30T12:26:06.796Z,102086.00
2022-11-30T12:28:57.590Z,102088.00
2022-11-30T12:31:52.764Z,102089.00
2022-11-30T12:34:56.908Z,102091.00
2022-11-30T12:37:45.941Z,102088.00
2022-11-30T12:41:01.012Z,102096.00
2022-11-30T12:44:15.845Z,102086.00
2022-11-30T12:47:26.548Z,102091.00
2022-11-30T12:50:22.859Z,102092.00
2022-11-30T12:53:37.197Z,102088.00
2022-11-30T12:56:48.720Z,102091.00
2022-11-30T12:59:45.955Z,102093.00
2022-11-30T13:02:36.244Z,102094.00
2022-11-30T13:05:09.309Z,102095.00
2022-11-30T13:08:08.012Z,102108.00
2022-11-30T13:11:06.133Z,102101.00
2022-11-30T13:13:36.115Z,102113.00
2022-11-30T13:16:08.511Z,102100.00
2022-11-30T13:18:37.342Z,102110.00
2022-11-30T13:21:41.008Z,102108.00
2022-11-30T13:24:29.449Z,102106.00
2022-11-30T13:27:24.452Z,102110.00
2022-11-30T13:29:58.356Z,102118.00
2022-11-30T13:32:56.793Z,102118.00
2022-11-30T13:35:30.668Z,102117.00
2022-11-30T13:41:07.376Z,102122.00
2022-11-30T13:43:43.843Z,102121.00
2022-11-30T13:46:23.607Z,102122.00
2022-11-30T13:49:33.307Z,102126.00
2022-11-30T13:54:50.676Z,102121.00
2022-11-30T13:57:29.779Z,102134.00
2022-11-30T14:00:02.319Z,102132.00
2022-11-30T14:02:36.549Z,102137.00
2022-11-30T14:05:18.688Z,102135.00
2022-11-30T14:08:24.845Z,102145.00
2022-11-30T14:10:54.913Z,102137.00
2022-11-30T14:13:26.869Z,102141.00
2022-11-30T14:15:59.770Z,102134.00
2022-11-30T14:18:40.548Z,102132.00
2022-11-30T14:21:31.869Z,102145.00
2022-11-30T14:24:18.124Z,102141.00
2022-11-30T14:26:48.433Z,102153.00
2022-11-30T14:29:23.779Z,102145.00
2022-11-30T14:32:01.347Z,102154.00
2022-11-30T14:34:38.710Z,102149.00
2022-11-30T14:37:20.227Z,102162.00
2022-11-30T14:39:48.425Z,102165.00
2022-11-30T14:42:28.283Z,102162.00
2022-11-30T14:44:56.375Z,102162.00
2022-11-30T14:47:29.809Z,102162.00
2022-11-30T14:50:01.922Z,102168.00
2022-11-30T14:53:24.864Z,102167.00
2022-11-30T14:56:48.068Z,102169.00
2022-11-30T14:59:45.588Z,102168.00
2022-11-30T15:02:37.410Z,102164.00
2022-11-30T15:05:08.605Z,102166.00
2022-11-30T15:07:36.817Z,102158.00
2022-11-30T15:10:16.279Z,102162.00
2022-11-30T15:12:45.276Z,102174.00
2022-11-30T15:15:26.438Z,102179.00
2022-11-30T15:18:22.301Z,102172.00
2022-11-30T15:21:03.565Z,102173.00
2022-11-30T15:23:30.396Z,102195.00
2022-11-30T15:26:11.409Z,102182.00
2022-11-30T15:28:43.729Z,102186.00
2022-11-30T15:31:16.490Z,102189.00
2022-11-30T15:33:52.213Z,102171.00
2022-11-30T15:36:32.549Z,102170.00
2022-11-30T15:39:06.524Z,102175.00
2022-11-30T15:41:35.216Z,102176.00
2022-11-30T15:44:02.442Z,102176.00
2022-11-30T15:46:46.109Z,102155.00
2022-11-30T15:49:25.217Z,102177.00
2022-11-30T15:52:29.260Z,102173.00
2022-11-30T15:54:59.714Z,102179.00
2022-11-30T15:57:57.123Z,102179.00
2022-11-30T16:00:24.922Z,102192.00
2022-11-30T16:03:12.775Z,102190.00
2022-11-30T16:05:40.488Z,102184.00
2022-11-30T16:08:17.964Z,102188.00
2022-11-30T16:10:45.064Z,102186.00
2022-11-30T16:13:15.835Z,102180.00
2022-11-30T16:15:50.296Z,102196.00
2022-11-30T16:18:23.565Z,102201.00
2022-11-30T16:20:54.375Z,102206.00
2022-11-30T16:23:21.540Z,102201.00
2022-11-30T16:25:50.109Z,102207.00
2022-11-30T16:28:18.903Z,102220.00
2022-11-30T16:30:46.829Z,102213.00
2022-11-30T16:33:21.428Z,102208.00
2022-11-30T16:35:58.070Z,102215.00
2022-11-30T16:38:26.383Z,102217.00
2022-11-30T16:40:55.643Z,102201.00
2022-11-30T16:43:25.766Z,102220.00
2022-11-30T16:45:52.634Z,102211.00
2022-11-30T16:48:19.965Z,102211.00
2022-11-30T16:50:46.984Z,102214.00
2022-11-30T16:53:17.325Z,102209.00
2022-11-30T16:55:44.725Z,102224.00
2022-11-30T16:58:11.645Z,102217.00
2022-11-30T17:00:40.697Z,102213.00
2022-11-30T17:03:28.375Z,102223.00
2022-11-30T17:05:55.141Z,102218.00
2022-11-30T17:08:22.355Z,102235.00
2022-11-30T17:10:54.486Z,102232.00
2022-11-30T17:13:21.814Z,102216.00
2022-11-30T17:15:48.673Z,102221.00
2022-11-30T17:18:15.439Z,102229.00
2022-11-30T17:20:42.544Z,102234.00
2022-11-30T17:23:09.604Z,102231.00
2022-11-30T17:25:36.590Z,102232.00
2022-11-30T17:28:03.687Z,102226.00
2022-11-30T17:30:30.481Z,102243.00
2022-11-30T17:32:57.452Z,102250.00
2022-11-30T17:35:24.375Z,102250.00
2022-11-30T17:37:54.497Z,102248.00
2022-11-30T17:40:22.133Z,102249.00
2022-11-30T17:42:49.072Z,102242.00
2022-11-30T17:45:16.027Z,102250.00
2022-11-30T17:47:42.790Z,102244.00
2022-11-30T17:50:10.064Z,102246.00
2022-11-30T17:52:36.812Z,102246.00
2022-11-30T17:55:03.787Z,102248.00
2022-11-30T17:57:30.570Z,102260.00
2022-11-30T17:59:57.292Z,102251.00
2022-11-30T18:02:24.191Z,102260.00
2022-11-30T18:04:52.582Z,102264.00
2022-11-30T18:07:20.051Z,102251.00
2022-11-30T18:09:47.012Z,102262.00
2022-11-30T18:12:13.762Z,102261.00
2022-11-30T18:14:40.476Z,102258.00
2022-11-30T18:17:07.338Z,102266.00
2022-11-30T18:19:34.073Z,102270.00
2022-11-30T18:22:00.812Z,102260.00
2022-11-30T18:24:27.605Z,102262.00
2022-11-30T18:26:54.355Z,102269.00
2022-11-30T18:29:21.084Z,102265.00
2022-11-30T18:31:51.342Z,102268.00
2022-11-30T18:34:18.316Z,102277.00
2022-11-30T18:36:45.082Z,102274.00
2022-11-30T18:39:11.878Z,102279.00
2022-11-30T18:41:38.778Z,102281.00
2022-11-30T18:44:05.797Z,102283.00
2022-11-30T18:46:33.783Z,102282.00
2022-11-30T18:49:01.633Z,102285.00
2022-11-30T18:51:30.620Z,102290.00
2022-11-30T18:54:01.012Z,102286.00
2022-11-30T18:56:32.121Z,102295.00
2022-11-30T18:59:13.111Z,102289.00
2022-11-30T19:01:40.584Z,102290.00
2022-11-30T19:04:10.355Z,102292.00
2022-11-30T19:06:39.904Z,102293.00
2022-11-30T19:09:13.419Z,102293.00
2022-11-30T19:11:41.252Z,102293.00
2022-11-30T19:14:08.917Z,102292.00
2022-11-30T19:16:36.173Z,102290.00
2022-11-30T19:19:06.890Z,102296.00
2022-11-30T19:21:34.375Z,102295.00
2022-11-30T19:24:01.840Z,102298.00
2022-11-30T19:26:28.877Z,102289.00
2022-11-30T19:28:57.874Z,102292.00
2022-11-30T19:31:25.323Z,102298.00
2022-11-30T19:33:55.065Z,102308.00
2022-11-30T19:36:30.414Z,102307.00
2022-11-30T19:38:59.832Z,102297.00
2022-11-30T19:41:28.068Z,102305.00
2022-11-30T19:44:02.811Z,102314.00
2022-11-30T19:46:31.688Z,102306.00
2022-11-30T19:49:01.247Z,102312.00
2022-11-30T19:51:29.971Z,102310.00
2022-11-30T19:53:58.496Z,102316.00
2022-11-30T19:56:26.358Z,102314.00
2022-11-30T19:58:53.620Z,102312.00
2022-11-30T20:01:24.417Z,102314.00
2022-11-30T20:03:54.180Z,102316.00
2022-11-30T20:06:25.471Z,102324.00
2022-11-30T20:08:52.407Z,102322.00
2022-11-30T20:11:19.240Z,102323.00
2022-11-30T20:13:46.030Z,102328.00
2022-11-30T20:16:15.988Z,102327.00
2022-11-30T20:18:46.555Z,102343.00
2022-11-30T20:21:18.171Z,102333.00
2022-11-30T20:23:47.378Z,102338.00
2022-11-30T20:26:14.091Z,102345.00
2022-11-30T20:28:40.937Z,102335.00
2022-11-30T20:31:10.567Z,102323.00
2022-11-30T20:33:38.017Z,102335.00
2022-11-30T20:36:07.836Z,102336.00
2022-11-30T20:38:35.126Z,102342.00
2022-11-30T20:41:02.270Z,102337.00
2022-11-30T20:43:29.498Z,102348.00
2022-11-30T20:45:56.654Z,102338.00
2022-11-30T20:48:23.439Z,102340.00
2022-11-30T20:51:14.058Z,102345.00
2022-11-30T20:53:37.010Z,102357.00
2022-11-30T20:56:04.085Z,102344.00
2022-11-30T20:58:31.087Z,102351.00
2022-11-30T21:01:00.143Z,102347.00
2022-11-30T21:03:28.084Z,102341.00
2022-11-30T21:05:54.995Z,102345.00
2022-11-30T21:08:21.740Z,102339.00
2022-11-30T21:10:48.506Z,102340.00
2022-11-30T21:13:15.305Z,102349.00
2022-11-30T21:15:42.078Z,102344.00
2022-11-30T21:18:08.909Z,102340.00
2022-11-30T21:20:35.645Z,102348.00
2022-11-30T21:23:02.409Z,102335.00
2022-11-30T21:25:29.200Z,102349.00
2022-11-30T21:27:56.183Z,102357.00
2022-11-30T21:30:22.949Z,102356.00
2022-11-30T21:32:49.724Z,102359.00
2022-11-30T21:35:16.546Z,102360.00
2022-11-30T21:37:43.309Z,102359.00
2022-11-30T21:40:10.931Z,102351.00
2022-11-30T21:42:37.696Z,102362.00
2022-11-30T21:45:04.849Z,102355.00
2022-11-30T21:47:32.942Z,102356.00
2022-11-30T21:49:59.712Z,102360.00
2022-11-30T21:52:26.741Z,102353.00
2022-11-30T21:54:53.868Z,102362.00
2022-11-30T21:57:22.106Z,102355.00
2022-11-30T21:59:49.188Z,102360.00
2022-11-30T22:02:16.828Z,102355.00
2022-11-30T22:04:43.750Z,102349.00
2022-11-30T22:07:12.927Z,102355.00
2022-11-30T22:09:39.706Z,102355.00
2022-11-30T22:12:06.700Z,102354.00
2022-11-30T22:14:36.129Z,102354.00
2022-11-30T22:17:02.929Z,102352.00
2022-11-30T22:19:29.856Z,102360.00
2022-11-30T22:21:56.641Z,102366.00
2022-11-30T22:24:23.389Z,102366.00
2022-11-30T22:26:50.158Z,102358.00
2022-11-30T22:29:22.145Z,102362.00
2022-11-30T22:31:52.828Z,102359.00
2022-11-30T22:34:21.032Z,102369.00
2022-11-30T22:36:48.555Z,102362.00
2022-11-30T22:39:19.592Z,102370.00
2022-11-30T22:41:53.066Z,102365.00
2022-11-30T22:44:22.269Z,102365.00
2022-11-30T22:46:49.131Z,102365.00
2022-11-30T22:49:21.327Z,102371.00
2022-11-30T22:51:49.877Z,102368.00
2022-11-30T22:54:17.250Z,102362.00
2022-11-30T22:56:46.216Z,102360.00
2022-11-30T22:59:14.023Z,102358.00
2022-11-30T23:01:49.700Z,102352.00
2022-11-30T23:04:20.635Z,102349.00
2022-11-30T23:06:49.582Z,102349.00
2022-11-30T23:09:20.625Z,102347.00
2022-11-30T23:11:48.205Z,102347.00
2022-11-30T23:14:16.248Z,102342.00
2022-11-30T23:16:43.961Z,102342.00
2022-11-30T23:19:12.924Z,102345.00
2022-11-30T23:21:44.766Z,102343.00
2022-11-30T23:24:17.470Z,102340.00
2022-11-30T23:26:44.368Z,102344.00
2022-11-30T23:29:15.142Z,102342.00
2022-11-30T23:31:45.166Z,102335.00
2022-11-30T23:34:16.722Z,102341.00
2022-11-30T23:36:43.826Z,102347.00
2022-11-30T23:39:14.793Z,102337.00
2022-11-30T23:41:42.417Z,102337.00
2022-11-30T23:44:10.257Z,102343.00
2022-11-30T23:46:37.665Z,102343.00
2022-11-30T23:49:04.778Z,102336.00
2022-11-30T23:51:31.790Z,102346.00
2022-11-30T23:53:58.734Z,102341.00
2022-11-30T23:56:25.517Z,102336.00
2022-11-30T23:58:53.094Z,102339.00
